Flight Track Log - Related Links

Times and Time Zones

All times are in EDT time to prevent confusion due to time zone crossing. See the ASA122 flight status page for this flight to view local times or setup timezone preferences in your user account.

Time Position Orientation Groundspeed Altitude Reporting Facility
EDT Latitude Longitude Course Direction KTS MPH feet Rate Location/Type
Thu 12:56:03 PM 64.8333 -147.6833 124° Southeast 220 253 4,600  Level Anchorage Center
Thu 12:57:03 PM 64.7667 -147.6333 162° South 260 299 7,500 2,950 Climbing Anchorage Center
Thu 12:58:03 PM 64.7167 -147.5333 139° Southeast 290 334 10,500 2,400 Climbing Anchorage Center
Thu 12:59:03 PM 64.6667 -147.3667 125° Southeast 320 368 12,300 2,350 Climbing Anchorage Center
Thu 01:00:03 PM 64.6167 -147.1667 120° Southeast 350 403 15,200 2,600 Climbing Anchorage Center
Thu 01:01:00 PM 64.3289 -146.3310 124° Southeast  Level FlightAware
Thu 01:01:03 PM 64.5500 -146.9667 128° Southeast 380 437 17,500  Level Anchorage Center
Thu 01:02:04 PM 64.5000 -146.7500 118° Southeast 390 449 19,600 1,547 Climbing Anchorage Center
Thu 01:04:00 PM 64.3561 -146.3542 130° Southeast  Level FlightAware
Thu 01:11:00 PM 63.8937 -144.8324 121° Southeast  Level FlightAware
Thu 01:11:04 PM 63.8667 -144.6500 125° Southeast 480 552 33,000  Level Anchorage Center
Thu 01:12:00 PM 63.8321 -144.6109 126° Southeast  Level FlightAware
Thu 01:12:04 PM 63.7833 -144.4000 127° Southeast 460 529 33,000  Level Anchorage Center
Thu 01:13:00 PM 63.7639 -144.3997 126° Southeast  Level FlightAware
Thu 01:13:05 PM 63.7000 -144.1667 129° Southeast 460 529 33,000  Level Anchorage Center
Thu 01:14:00 PM 63.6954 -144.1896 126° Southeast  Level FlightAware
Thu 01:14:04 PM 63.6333 -143.9333 123° Southeast 460 529 33,000  Level Anchorage Center
Thu 01:15:00 PM 63.6266 -143.9805 126° Southeast  Level FlightAware
Thu 01:15:05 PM 63.5667 -143.7000 123° Southeast 460 529 33,000  Level Anchorage Center
Thu 01:16:00 PM 63.5583 -143.7709 125° Southeast  Level FlightAware
Thu 01:16:05 PM 63.4833 -143.4667 129° Southeast 460 529 33,000  Level Anchorage Center
Thu 01:17:05 PM 63.4000 -143.2500 131° Southeast 460 529 33,000  Level Anchorage Center
Thu 01:18:05 PM 63.3333 -143.0167 122° Southeast 460 529 33,000  Level Anchorage Center
Thu 01:19:05 PM 63.2500 -142.8000 130° Southeast 460 529 33,000  Level Anchorage Center
Thu 01:20:05 PM 63.1667 -142.5667 128° Southeast 460 529 33,000  Level Anchorage Center
Thu 01:21:05 PM 63.1000 -142.3500 124° Southeast 450 518 33,000  Level Anchorage Center
Thu 01:22:06 PM 63.0167 -142.1167 128° Southeast 450 518 33,000  Level Anchorage Center
Thu 01:23:05 PM 62.9500 -141.9000 124° Southeast 450 518 33,000  Level Anchorage Center
Thu 01:24:06 PM 62.8500 -141.7167 140° Southeast 450 518 33,000  Level Anchorage Center
Thu 01:25:06 PM 62.7500 -141.5333 140° Southeast 450 518 33,000  Level Anchorage Center
Thu 01:26:06 PM 62.6500 -141.3667 143° Southeast 460 529 33,000  Level Anchorage Center
Thu 01:27:06 PM 62.5667 -141.1833 135° Southeast 440 506 33,000  Level Anchorage Center
Thu 01:30:00 PM 62.3873 -140.8930 143° Southeast  Level FlightAware
Thu 01:37:00 PM 61.7215 -139.8530 143° Southeast  Level FlightAware
Thu 01:38:00 PM 61.6257 -139.7080 144° Southeast  Level FlightAware
Thu 01:38:02 PM 61.5000 -139.2833 145° Southeast 440 506 33,000  Level Anchorage Center
Thu 01:39:00 PM 61.5298 -139.5640 144° Southeast  Level FlightAware
Thu 01:39:02 PM 61.4167 -139.1167 136° Southeast 450 518 33,000  Level Anchorage Center
Thu 01:40:00 PM 61.4338 -139.4209 145° Southeast  Level FlightAware
Thu 01:40:02 PM 61.3167 -138.9500 141° Southeast 450 518 33,000  Level Anchorage Center
Thu 01:41:00 PM 61.3376 -139.2786 145° Southeast  Level FlightAware
Thu 01:41:02 PM 61.2000 -138.8000 148° Southeast 450 518 33,000  Level Anchorage Center
Thu 01:42:00 PM 61.2412 -139.1373 145° Southeast  Level FlightAware
Thu 01:42:02 PM 61.1000 -138.6667 147° Southeast 440 506 33,000  Level Anchorage Center
Thu 01:43:00 PM 61.1447 -138.9967 145° Southeast  Level FlightAware
Thu 01:43:02 PM 61.0000 -138.5500 150° Southeast 440 506 33,000  Level Anchorage Center
Thu 01:44:03 PM 60.8833 -138.4000 148° Southeast 450 518 33,000  Level Anchorage Center
Thu 01:45:03 PM 60.7833 -138.2667 147° Southeast 450 518 33,000  Level Anchorage Center
Thu 01:46:03 PM 60.6833 -138.1333 147° Southeast 450 518 33,000  Level Anchorage Center
Thu 01:47:03 PM 60.5667 -138.0000 151° Southeast 440 506 33,000  Level Anchorage Center
Thu 01:48:03 PM 60.4667 -137.8667 147° Southeast 440 506 33,000  Level Anchorage Center
Thu 01:49:03 PM 60.3667 -137.7500 150° Southeast 440 506 33,000  Level Anchorage Center
Thu 01:50:03 PM 60.2500 -137.6167 150° Southeast 440 506 33,000  Level Anchorage Center
Thu 01:51:03 PM 60.1500 -137.5000 150° Southeast 440 506 33,000  Level Anchorage Center
Thu 01:52:04 PM 60.0500 -137.3667 146° Southeast 430 495 33,000  Level Anchorage Center
Thu 01:53:03 PM 59.9500 -137.2500 150° Southeast 430 495 33,000  Level Anchorage Center
Thu 01:54:04 PM 59.8333 -137.1167 150° Southeast 430 495 33,000  Level Anchorage Center
Thu 01:55:04 PM 59.7333 -137.0000 150° Southeast 430 495 33,000  Level Anchorage Center
Thu 01:56:04 PM 59.6333 -136.8667 146° Southeast 440 506 33,000  Level Anchorage Center
Thu 01:57:04 PM 59.5167 -136.7500 153° Southeast 440 506 33,000  Level Anchorage Center
Thu 01:58:04 PM 59.4167 -136.6333 149° Southeast 430 495 33,000  Level Anchorage Center
Thu 01:59:04 PM 59.3167 -136.5000 146° Southeast 440 506 33,000  Level Anchorage Center
Thu 02:00:04 PM 59.2000 -136.3833 153° Southeast 440 506 33,000  Level Anchorage Center
Thu 02:01:04 PM 59.1000 -136.2667 149° Southeast 430 495 33,000  Level Anchorage Center
Thu 02:02:05 PM 59.0000 -136.1500 149° Southeast 440 506 33,000  Level Anchorage Center
Thu 02:03:05 PM 58.9000 -136.0333 149° Southeast 430 495 33,000  Level Anchorage Center
Thu 02:04:05 PM 58.7833 -135.9167 153° Southeast 450 518 33,000  Level Anchorage Center
Thu 02:05:05 PM 58.6833 -135.8000 149° Southeast 440 506 33,000  Level Anchorage Center
Thu 02:06:05 PM 58.5667 -135.6833 152° Southeast 440 506 33,000  Level Anchorage Center
Thu 02:07:05 PM 58.4667 -135.5667 149° Southeast 440 506 33,000  Level Anchorage Center
Thu 02:08:05 PM 58.3500 -135.4500 152° Southeast 440 506 33,000  Level Anchorage Center
Thu 02:09:05 PM 58.2500 -135.3333 148° Southeast 440 506 33,000  Level Anchorage Center
Thu 02:10:05 PM 58.1667 -135.2500 152° Southeast 440 506 33,000  Level Anchorage Center
Thu 02:11:06 PM 58.0667 -135.0833 139° Southeast 440 506 33,000  Level Anchorage Center
Thu 02:12:05 PM 57.9833 -134.9333 136° Southeast 450 518 33,000  Level Anchorage Center
Thu 02:13:06 PM 57.8833 -134.7833 141° Southeast 450 518 33,000  Level Anchorage Center
Thu 02:14:05 PM 57.8000 -134.6167 133° Southeast 440 506 33,000  Level Anchorage Center
Thu 02:15:06 PM 57.7000 -134.4667 141° Southeast 440 506 33,000  Level Anchorage Center
Thu 02:16:06 PM 57.6000 -134.3167 141° Southeast 440 506 33,000  Level Anchorage Center
Thu 02:17:06 PM 57.5167 -134.1667 136° Southeast 440 506 33,000  Level Anchorage Center
Thu 02:18:06 PM 57.4167 -134.0167 141° Southeast 440 506 33,000  Level Anchorage Center
Thu 02:19:06 PM 57.3167 -133.8667 141° Southeast 450 518 33,000  Level Anchorage Center
Thu 02:20:06 PM 57.2333 -133.7333 139° Southeast 440 506 33,000  Level Anchorage Center
Thu 02:21:07 PM 57.1333 -133.5833 141° Southeast 450 518 33,000  Level Anchorage Center
Thu 02:22:07 PM 57.0333 -133.4333 141° Southeast 440 506 33,000  Level Anchorage Center
Thu 02:23:06 PM 56.9500 -133.2833 135° Southeast 450 518 33,000  Level Anchorage Center
Thu 02:24:07 PM 56.8500 -133.1333 141° Southeast 450 518 33,000  Level Anchorage Center
Thu 02:25:07 PM 56.7500 -132.9833 141° Southeast 450 518 33,000  Level Anchorage Center
Thu 02:26:07 PM 56.6500 -132.8333 140° Southeast 460 529 33,000  Level Anchorage Center
Thu 02:27:07 PM 56.5500 -132.7000 144° Southeast 450 518 33,000  Level Anchorage Center
Thu 02:28:07 PM 56.4667 -132.5500 135° Southeast 450 518 33,000  Level Anchorage Center
Thu 02:29:07 PM 56.3667 -132.4167 144° Southeast 450 518 33,000  Level Anchorage Center
Thu 02:30:07 PM 56.2667 -132.2667 140° Southeast 450 518 33,000  Level Anchorage Center
Thu 02:31:07 PM 56.1667 -132.1333 143° Southeast 450 518 33,000  Level Anchorage Center
Thu 02:32:07 PM 56.0667 -131.9833 140° Southeast 450 518 33,000  Level Anchorage Center
Thu 02:33:08 PM 55.9667 -131.8500 143° Southeast 460 529 33,000  Level Anchorage Center
Thu 02:34:08 PM 55.8667 -131.7000 140° Southeast 460 529 33,000  Level Anchorage Center
Thu 02:35:08 PM 55.7833 -131.5667 138° Southeast 450 518 33,000  Level Anchorage Center
Thu 02:36:08 PM 55.6667 -131.4167 144° Southeast 460 529 33,000  Level Anchorage Center
Thu 02:37:08 PM 55.5833 -131.2833 138° Southeast 450 518 33,000  Level Anchorage Center
Thu 02:38:08 PM 55.4667 -131.1333 144° Southeast 450 518 33,000  Level Anchorage Center
Thu 02:39:08 PM 55.3833 -131.0167 141° Southeast 450 518 33,000  Level Anchorage Center
Thu 02:40:08 PM 55.2833 -130.8667 139° Southeast 450 518 33,000  Level Anchorage Center
Thu 02:41:08 PM 55.1833 -130.7333 143° Southeast 450 518 33,000  Level Anchorage Center
Thu 02:42:16 PM 55.0667 -130.6167 150° Southeast 450 518 33,000  Level Vancouver Center
Thu 02:43:16 PM 54.9667 -130.4833 143° Southeast 450 518 33,000  Level Vancouver Center
Thu 02:44:16 PM 54.8833 -130.3500 137° Southeast 440 506 33,000  Level Vancouver Center
Thu 02:45:16 PM 54.7833 -130.2167 142° Southeast 450 518 33,000  Level Vancouver Center
Thu 02:46:16 PM 54.6667 -130.1167 154° Southeast 450 518 33,000  Level Vancouver Center
Thu 02:47:16 PM 54.5833 -129.9667 134° Southeast 440 506 33,000  Level Vancouver Center
Thu 02:48:16 PM 54.4833 -129.8667 150° Southeast 440 506 33,000  Level Vancouver Center
Thu 02:49:16 PM 54.3667 -129.7333 146° Southeast 440 506 33,000  Level Vancouver Center
Thu 02:50:16 PM 54.2833 -129.6000 137° Southeast 440 506 33,000  Level Vancouver Center
Thu 02:51:16 PM 54.1833 -129.4667 142° Southeast 440 506 33,000  Level Vancouver Center
Thu 02:52:16 PM 54.0833 -129.3500 146° Southeast 440 506 33,000  Level Vancouver Center
Thu 02:53:16 PM 54.0000 -129.2167 137° Southeast 440 506 33,000  Level Vancouver Center
Thu 02:54:16 PM 53.8833 -129.1000 149° Southeast 440 506 33,000  Level Vancouver Center
Thu 02:55:16 PM 53.7833 -128.9667 142° Southeast 440 506 33,000  Level Vancouver Center
Thu 02:56:16 PM 53.7000 -128.8500 140° Southeast 450 518 33,000  Level Vancouver Center
Thu 02:57:16 PM 53.6000 -128.7167 142° Southeast 450 518 33,000  Level Vancouver Center
Thu 02:58:16 PM 53.4833 -128.6000 149° Southeast 450 518 33,000  Level Vancouver Center
Thu 02:59:16 PM 53.3833 -128.4667 141° Southeast 450 518 33,000  Level Vancouver Center
Thu 03:00:16 PM 53.2833 -128.3500 145° Southeast 450 518 33,000  Level Vancouver Center
Thu 03:01:16 PM 53.1833 -128.2333 145° Southeast 450 518 33,000  Level Vancouver Center
Thu 03:02:16 PM 53.0667 -128.1000 146° Southeast 460 529 33,000  Level Vancouver Center
Thu 03:03:16 PM 52.9667 -127.9833 145° Southeast 450 518 33,000  Level Vancouver Center
Thu 03:04:16 PM 52.8667 -127.8667 145° Southeast 450 518 33,000  Level Vancouver Center
Thu 03:05:16 PM 52.7667 -127.7500 145° Southeast 450 518 33,000  Level Vancouver Center
Thu 03:06:16 PM 52.6667 -127.6167 141° Southeast 460 529 33,000  Level Vancouver Center
Thu 03:07:16 PM 52.5500 -127.5000 149° Southeast 450 518 33,000  Level Vancouver Center
Thu 03:08:16 PM 52.4500 -127.3833 145° Southeast 450 518 33,000  Level Vancouver Center
Thu 03:09:16 PM 52.3667 -127.2667 139° Southeast 450 518 33,000  Level Vancouver Center
Thu 03:10:16 PM 52.2667 -127.1500 144° Southeast 450 518 33,000  Level Vancouver Center
Thu 03:11:16 PM 52.1500 -127.0333 148° Southeast 440 506 33,000  Level Vancouver Center
Thu 03:12:16 PM 52.0500 -126.9167 144° Southeast 440 506 33,000  Level Vancouver Center
Thu 03:13:16 PM 51.9333 -126.8000 148° Southeast 440 506 33,000  Level Vancouver Center
Thu 03:14:16 PM 51.8333 -126.6833 144° Southeast 440 506 33,000  Level Vancouver Center
Thu 03:15:16 PM 51.7500 -126.5833 143° Southeast 450 518 33,000  Level Vancouver Center
Thu 03:16:16 PM 51.6500 -126.4667 144° Southeast 450 518 33,000  Level Vancouver Center
Thu 03:17:16 PM 51.5500 -126.3500 144° Southeast 450 518 33,000  Level Vancouver Center
Thu 03:18:16 PM 51.4333 -126.2333 148° Southeast 450 518 33,000  Level Vancouver Center
Thu 03:19:16 PM 51.3333 -126.1167 144° Southeast 450 518 33,000  Level Vancouver Center
Thu 03:20:16 PM 51.2333 -126.0167 148° Southeast 450 518 33,000  Level Vancouver Center
Thu 03:21:16 PM 51.1167 -125.9000 148° Southeast 450 518 33,000  Level Vancouver Center
Thu 03:22:16 PM 51.0167 -125.7833 144° Southeast 450 518 33,000  Level Vancouver Center
Thu 03:23:16 PM 50.9167 -125.6833 148° Southeast 450 518 33,000  Level Vancouver Center
Thu 03:24:16 PM 50.8167 -125.5667 144° Southeast 450 518 33,000  Level Vancouver Center
Thu 03:25:16 PM 50.7000 -125.4667 151° Southeast 450 518 33,000  Level Vancouver Center
Thu 03:26:16 PM 50.6000 -125.3500 143° Southeast 450 518 33,000  Level Vancouver Center
Thu 03:27:16 PM 50.4833 -125.2500 151° Southeast 450 518 33,000  Level Vancouver Center
Thu 03:28:16 PM 50.3833 -125.1333 143° Southeast 450 518 33,000  Level Vancouver Center
Thu 03:29:16 PM 50.2833 -125.0333 147° Southeast 450 518 33,000  Level Vancouver Center
Thu 03:30:16 PM 50.1667 -124.9167 147° Southeast 450 518 33,000  Level Vancouver Center
Thu 03:31:16 PM 50.0667 -124.8167 147° Southeast 450 518 33,000  Level Vancouver Center
Thu 03:32:16 PM 49.9500 -124.7000 147° Southeast 450 518 33,000  Level Vancouver Center
Thu 03:33:16 PM 49.8500 -124.6000 147° Southeast 450 518 33,000  Level Vancouver Center
Thu 03:34:16 PM 49.7500 -124.5000 147° Southeast 450 518 33,000  Level Vancouver Center
Thu 03:35:16 PM 49.6500 -124.4000 147° Southeast 450 518 33,000  Level Vancouver Center
Thu 03:36:16 PM 49.5333 -124.2833 147° Southeast 450 518 33,000  Level Vancouver Center
Thu 03:37:16 PM 49.4333 -124.1833 147° Southeast 450 518 33,000  Level Vancouver Center
Thu 03:38:16 PM 49.3333 -124.0833 147° Southeast 450 518 33,000  Level Vancouver Center
Thu 03:39:16 PM 49.2167 -123.9833 151° Southeast 450 518 33,000  Level Vancouver Center
Thu 03:40:16 PM 49.1167 -123.8833 147° Southeast 450 518 33,000  Level Vancouver Center
Thu 03:41:16 PM 49.0167 -123.7667 143° Southeast 450 518 33,000  Level Vancouver Center
Thu 03:42:16 PM 48.9000 -123.6667 151° Southeast 450 518 33,000 -1,200 Level Vancouver Center
Thu 03:44:16 PM 48.7000 -123.4667 147° Southeast 440 506 29,400 -2,000 Descending Vancouver Center
Thu 03:45:16 PM 48.6000 -123.3667 147° Southeast 430 495 27,000 -2,400 Descending Vancouver Center
Thu 03:46:16 PM 48.5000 -123.3000 156° South 410 472 24,600 -2,350 Descending Vancouver Center
Thu 03:47:16 PM 48.4000 -123.2000 146° Southeast 400 460 22,300 -2,200 Descending Vancouver Center
Thu 03:48:16 PM 48.3167 -123.1167 146° Southeast 380 437 20,200 -1,912 Descending Vancouver Center
Thu 03:48:47 PM 48.3047 -123.0914 125° Southeast 379 436 19,400 -1,565 Descending Seattle Center
Thu 03:49:48 PM 48.2219 -123.0161 149° Southeast 359 413 17,800 -1,982 Descending Seattle Center
Thu 03:50:39 PM 48.1439 -122.9464 149° Southeast 341 392 15,700 -2,362 Descending Seattle Center
Thu 03:51:22 PM 48.0861 -122.8917 148° Southeast 343 395 14,100 -2,250 Descending Seattle Center
Thu 03:51:51 PM 48.0458 -122.8542 148° Southeast 341 392 13,000 -1,600 Descending Seattle Center
Thu 03:52:22 PM 48.0186 -122.8061 130° Southeast 319 367 12,500 -984 Descending Seattle Center
Thu 03:52:52 PM 47.9933 -122.7528 125° Southeast 307 353 12,000 -1,377 Descending Seattle Center
Thu 03:53:23 PM 47.9639 -122.7008 130° Southeast 285 328 11,100 -1,475 Descending Seattle Center
Thu 03:53:53 PM 47.9436 -122.6603 127° Southeast 290 334 10,500 -1,180 Descending Seattle Center
Thu 03:54:24 PM 47.9153 -122.6119 131° Southeast 283 326 9,900 -1,279 Descending Seattle Center
Thu 03:54:54 PM 47.8961 -122.5725 126° Southeast 275 316 9,200 -1,377 Descending Seattle Center
Thu 03:55:25 PM 47.8692 -122.5250 130° Southeast 264 304 8,500 -1,082 Descending Seattle Center
Thu 03:55:55 PM 47.8489 -122.4911 132° Southeast 262 302 8,100 -1,279 Descending Seattle Center
Thu 03:56:26 PM 47.8178 -122.4444 135° Southeast 252 290 7,200 -1,574 Descending Seattle Center
Thu 03:56:56 PM 47.7872 -122.4158 148° Southeast 259 298 6,500 -1,082 Descending Seattle Center
Thu 03:57:27 PM 47.7581 -122.3917 151° Southeast 254 292 6,100 -689 Descending Seattle Center
Thu 03:57:57 PM 47.7264 -122.3697 155° Southeast 245 282 5,800 -885 Descending Seattle Center
Thu 03:58:28 PM 47.6964 -122.3500 156° South 233 268 5,200 -885 Descending Seattle Center
Thu 03:58:58 PM 47.6689 -122.3314 155° Southeast 229 264 4,900 -984 Descending Seattle Center
Thu 03:59:29 PM 47.6417 -122.3178 161° South 205 236 4,200 -1,377 Descending Seattle Center
Thu 03:59:59 PM 47.6153 -122.3169 179° South 214 246 3,500 -1,254 Descending Seattle Center
Thu 04:00:36 PM 47.5817 -122.3181 181° South 200 230 2,800 -1,180 Descending Seattle Center
Thu 04:01:00 PM 47.5550 -122.3175 179° South 205 236 2,300 -1,000 Descending Seattle Center
Thu 04:01:36 PM 47.5283 -122.3181 181° South 193 222 1,800 -871 Descending Seattle Center
Thu 04:02:02 PM 47.5056 -122.3178 180° South 183 211 1,400 -885 Descending Seattle Center
Thu 04:02:37 PM 47.4814 -122.3175 180° South 147 169 900 -787 Descending Seattle Center
Thu 04:03:03 PM 47.4675 -122.3183 182° South 143 165 600 -345 Descending Seattle Center
Thu 04:04:04 PM 47.4267 -122.3192 181° South 140 161 400 -197 Descending Seattle Center

Login

Don't have an account? Register now (free) for customized features, flight alerts, and more!